Time;durP1;ratioP1;P1;durP2;ratioP2;P2;SDS_P1;SDS_P2;PMS_P1;PMS_P2;Temp;Humidity;BMP_temperature;BMP_pressure;BME280_temperature;BME280_humidity;BME280_pressure;Samples;Min_cycle;Max_cycle;Signal;HPM_P1;HPM_P2
2023/04/10 00:01:46;;;;;;;46.78;35.25;;;;;;;9.50;73.08;101184.19;6149262;22;99996;-84
2023/04/10 00:04:12;;;;;;;43.25;33.35;;;;;;;9.55;73.00;101189.38;6125769;22;102221;-84
2023/04/10 00:06:39;;;;;;;47.65;35.03;;;;;;;9.57;73.13;101184.09;6149546;22;97108;-83
2023/04/10 00:09:05;;;;;;;44.13;34.45;;;;;;;9.50;72.79;101170.22;6125528;22;97119;-84
2023/04/10 00:11:30;;;;;;;49.75;34.70;;;;;;;9.58;72.86;101191.09;6124172;22;101257;-81
2023/04/10 00:13:56;;;;;;;44.53;35.58;;;;;;;9.55;72.80;101178.03;6149994;22;101365;-83
2023/04/10 00:16:21;;;;;;;45.63;35.13;;;;;;;9.52;72.47;101177.19;6149759;22;97531;-83
2023/04/10 00:18:47;;;;;;;44.13;33.95;;;;;;;9.50;72.52;101165.84;6149759;22;96914;-82
2023/04/10 00:21:12;;;;;;;45.05;34.35;;;;;;;9.49;72.30;101163.25;6149706;22;100679;-83
2023/04/10 00:23:38;;;;;;;44.25;33.38;;;;;;;9.50;72.10;101170.22;6149574;22;100865;-84
2023/04/10 00:26:04;;;;;;;44.28;33.20;;;;;;;9.46;71.81;101164.16;6124711;22;96939;-83
2023/04/10 00:28:29;;;;;;;45.03;33.35;;;;;;;9.45;71.94;101164.19;6150839;22;96776;-83
2023/04/10 00:30:55;;;;;;;43.60;31.90;;;;;;;9.45;71.72;101165.06;6173971;22;99583;-83
2023/04/10 00:33:20;;;;;;;42.45;31.88;;;;;;;9.45;71.64;101167.69;6175738;22;98216;-83
2023/04/10 00:35:46;;;;;;;42.45;32.65;;;;;;;9.39;71.54;101151.19;6123669;22;96879;-84
2023/04/10 00:38:12;;;;;;;42.47;31.70;;;;;;;9.33;71.55;101146.03;6125282;22;96929;-84
2023/04/10 00:40:37;;;;;;;43.67;33.08;;;;;;;9.39;71.71;101166.91;6148506;22;98055;-83
2023/04/10 00:43:03;;;;;;;46.63;33.30;;;;;;;9.40;71.43;101163.41;6150014;22;101318;-83
2023/04/10 00:45:29;;;;;;;43.72;33.28;;;;;;;9.37;71.55;101159.09;6149533;22;97024;-84
2023/04/10 00:47:55;;;;;;;42.13;31.90;;;;;;;9.37;71.65;101155.59;6149456;22;97303;-83
2023/04/10 00:50:21;;;;;;;44.58;32.78;;;;;;;9.34;71.54;101161.75;6149864;22;97193;-82
2023/04/10 00:52:50;;;;;;;41.55;32.53;;;;;;;9.30;71.38;101149.56;6149740;22;99822;-84
2023/04/10 00:55:16;;;;;;;43.00;31.00;;;;;;;9.23;71.23;101153.19;6150322;22;96636;-82
2023/04/10 00:57:45;;;;;;;40.17;29.83;;;;;;;9.29;71.48;101172.28;6123976;22;96799;-84
2023/04/10 01:00:15;;;;;;;40.22;31.02;;;;;;;9.26;71.28;101161.84;6148985;22;101120;-84
2023/04/10 01:02:41;;;;;;;38.17;30.35;;;;;;;9.28;70.89;101162.72;6174210;22;98357;-82
2023/04/10 01:05:08;;;;;;;40.15;30.50;;;;;;;9.29;70.71;101168.81;6150236;22;96939;-83
2023/04/10 01:07:45;;;;;;;42.13;31.85;;;;;;;9.27;71.11;101174.06;6174825;22;96930;-83
2023/04/10 01:10:36;;;;;;;37.17;29.52;;;;;;;9.27;70.67;101168.81;6149937;22;101658;-84
2023/04/10 01:13:19;;;;;;;40.80;31.35;;;;;;;9.20;70.79;101164.56;6175116;22;98842;-83
2023/04/10 01:16:02;;;;;;;40.88;32.03;;;;;;;9.20;70.61;101159.34;6174123;22;97113;-84
2023/04/10 01:18:49;;;;;;;45.55;33.63;;;;;;;9.20;71.03;101166.34;6126704;22;96813;-83
2023/04/10 01:21:15;;;;;;;41.10;31.77;;;;;;;9.20;71.69;101168.97;6151390;22;101326;-84
2023/04/10 01:23:59;;;;;;;42.05;32.05;;;;;;;9.13;70.58;101156.81;6125672;22;100730;-83
2023/04/10 01:27:02;;;;;;;39.83;31.33;;;;;;;9.21;70.76;101168.91;6150426;22;97023;-83
2023/04/10 01:29:31;;;;;;;44.00;31.98;;;;;;;9.14;70.70;101159.44;6151306;22;97810;-83
2023/04/10 01:32:06;;;;;;;42.28;31.85;;;;;;;9.05;69.99;101151.72;6125355;22;101580;-83
2023/04/10 01:34:35;;;;;;;40.58;31.85;;;;;;;9.13;70.62;101172.53;6125718;22;101791;-84
2023/04/10 01:37:04;;;;;;;45.78;32.92;;;;;;;9.11;70.51;101164.72;6149896;22;96623;-84
2023/04/10 01:39:30;;;;;;;42.17;31.83;;;;;;;9.11;70.60;101156.00;6125999;22;96857;-83
2023/04/10 01:42:00;;;;;;;42.63;31.75;;;;;;;9.07;70.51;101150.81;6131473;22;100966;-83
2023/04/10 01:44:46;;;;;;;45.70;32.45;;;;;;;9.11;70.59;101153.38;6185020;22;99265;-84
2023/04/10 01:47:15;;;;;;;42.22;31.20;;;;;;;8.99;70.25;101150.03;6130801;22;96902;-84
2023/04/10 01:49:43;;;;;;;51.13;34.08;;;;;;;9.02;70.27;101167.47;6155739;22;96990;-81
2023/04/10 01:52:10;;;;;;;49.95;34.38;;;;;;;8.96;70.63;101160.56;6129978;22;102086;-84
2023/04/10 01:54:36;;;;;;;52.85;34.85;;;;;;;9.01;70.85;101169.19;6130926;22;100515;-83
2023/04/10 01:57:03;;;;;;;57.83;36.33;;;;;;;8.93;71.09;101154.47;6130059;22;96960;-83
2023/04/10 01:59:33;;;;;;;60.28;38.25;;;;;;;9.01;71.04;101170.97;6132784;22;97211;-83
2023/04/10 02:02:00;;;;;;;55.03;37.25;;;;;;;8.99;71.29;101162.28;6129960;22;101297;-84
2023/04/10 02:04:26;;;;;;;54.42;35.22;;;;;;;9.00;71.06;101171.84;6130924;22;101210;-84
2023/04/10 02:07:15;;;;;;;54.33;35.97;;;;;;;9.00;70.61;101175.34;6180338;22;97225;-84
2023/04/10 02:10:20;;;;;;;57.70;34.78;;;;;;;9.00;71.00;101175.34;6156447;22;97095;-81
2023/04/10 02:12:54;;;;;;;53.42;36.53;;;;;;;9.01;70.98;101168.34;6155151;22;98990;-84
2023/04/10 02:15:23;;;;;;;53.53;36.85;;;;;;;8.98;70.78;101166.63;6181945;22;97911;-83
2023/04/10 02:17:50;;;;;;;50.72;36.50;;;;;;;8.97;71.05;101174.53;6129036;22;97726;-84
2023/04/10 02:20:20;;;;;;;49.53;34.17;;;;;;;8.96;71.04;101178.00;6130781;22;97037;-82
2023/04/10 02:22:46;;;;;;;52.53;35.70;;;;;;;8.93;71.30;101173.72;6155706;22;98234;-84
2023/04/10 02:25:11;;;;;;;53.20;35.92;;;;;;;8.95;71.20;101171.91;6155786;22;101010;-84
2023/04/10 02:27:38;;;;;;;50.20;34.50;;;;;;;8.92;71.20;101169.34;6130424;22;97168;-83
2023/04/10 02:30:04;;;;;;;50.75;35.67;;;;;;;8.89;71.00;101163.28;6130575;22;97239;-84
2023/04/10 02:32:32;;;;;;;52.75;35.00;;;;;;;8.89;71.39;101165.91;6180071;22;101361;-84
2023/04/10 02:34:58;;;;;;;51.58;35.35;;;;;;;8.88;70.83;101178.13;6156990;22;97725;-83
2023/04/10 02:37:24;;;;;;;55.90;36.67;;;;;;;8.78;70.89;101166.03;6155497;22;97070;-84
2023/04/10 02:39:51;;;;;;;48.70;34.70;;;;;;;8.89;71.27;101173.75;6130408;22;96985;-83
2023/04/10 02:42:18;;;;;;;46.10;32.17;;;;;;;8.88;71.16;101175.50;6130011;22;99711;-83
2023/04/10 02:44:44;;;;;;;50.53;34.33;;;;;;;8.80;71.19;101175.59;6155823;22;97768;-81
2023/04/10 02:47:10;;;;;;;47.42;34.08;;;;;;;8.76;70.62;101168.69;6130002;22;96996;-83
2023/04/10 02:49:37;;;;;;;44.42;32.25;;;;;;;8.77;70.71;101175.66;6131351;22;96787;-84
2023/04/10 02:52:10;;;;;;;49.05;33.33;;;;;;;8.75;70.83;101173.94;6132892;22;100802;-83
2023/04/10 02:54:36;;;;;;;46.47;33.72;;;;;;;8.65;71.30;101167.97;6130755;22;100763;-85
2023/04/10 02:57:03;;;;;;;46.75;33.33;;;;;;;8.65;71.00;101178.44;6154806;22;97090;-84
2023/04/10 02:59:29;;;;;;;41.78;30.30;;;;;;;8.65;70.42;101167.97;6156610;22;96728;-83
2023/04/10 03:01:56;;;;;;;44.55;31.30;;;;;;;8.64;70.59;101160.09;6154928;22;101773;-81
2023/04/10 03:04:22;;;;;;;40.80;30.75;;;;;;;8.65;69.90;101173.19;6155719;22;101544;-83
2023/04/10 03:06:47;;;;;;;46.72;32.92;;;;;;;8.61;70.24;101169.75;6153881;22;97168;-81
2023/04/10 03:09:13;;;;;;;45.72;30.98;;;;;;;8.44;70.23;101148.16;6155610;22;97477;-84
2023/04/10 03:11:39;;;;;;;41.17;30.83;;;;;;;8.36;69.99;101147.34;6155142;22;100097;-83
2023/04/10 03:14:05;;;;;;;39.78;29.83;;;;;;;8.46;69.95;101174.28;6130026;22;101350;-83
2023/04/10 03:16:30;;;;;;;37.08;27.58;;;;;;;8.33;69.58;101155.22;6129956;22;96756;-84
2023/04/10 03:18:56;;;;;;;34.35;25.55;;;;;;;8.36;69.38;101173.50;6130169;22;97506;-83
2023/04/10 03:21:21;;;;;;;35.20;25.90;;;;;;;8.21;69.74;101181.53;6155130;22;101532;-84
2023/04/10 03:23:48;;;;;;;32.85;24.65;;;;;;;8.25;69.50;101173.63;6155851;22;101553;-82
2023/04/10 03:26:13;;;;;;;30.52;23.98;;;;;;;8.22;69.72;101178.88;6154922;22;97770;-83
2023/04/10 03:28:40;;;;;;;33.72;25.33;;;;;;;8.14;69.21;101178.97;6180927;22;96874;-83
2023/04/10 03:31:09;;;;;;;29.70;23.50;;;;;;;8.09;69.21;101172.94;6129608;22;100996;-83
2023/04/10 03:33:35;;;;;;;30.60;23.67;;;;;;;8.13;69.33;101173.75;6155734;22;100197;-83
2023/04/10 03:36:00;;;;;;;28.05;21.77;;;;;;;8.11;69.00;101173.75;6180116;22;96923;-83
2023/04/10 03:38:26;;;;;;;29.73;24.00;;;;;;;8.10;69.06;101182.50;6155505;22;96887;-83
2023/04/10 03:40:52;;;;;;;33.05;24.95;;;;;;;7.99;69.21;101157.34;6147723;22;100848;-83
2023/04/10 03:43:20;;;;;;;29.63;23.48;;;;;;;8.02;69.26;101160.78;6126385;22;101596;-83
2023/04/10 03:45:46;;;;;;;31.33;23.52;;;;;;;8.02;69.18;101162.53;6125428;22;97260;-84
2023/04/10 03:48:13;;;;;;;32.20;24.08;;;;;;;8.12;68.95;101172.91;6125725;22;96799;-83
2023/04/10 03:50:43;;;;;;;29.77;24.10;;;;;;;8.11;68.87;101170.28;6151126;22;101770;-83
2023/04/10 03:53:09;;;;;;;31.75;23.75;;;;;;;8.18;69.05;101173.72;6150267;22;97209;-83
2023/04/10 03:55:37;;;;;;;28.75;22.15;;;;;;;8.21;68.81;101174.53;6124474;22;97208;-83
2023/04/10 03:58:03;;;;;;;29.60;22.40;;;;;;;8.17;68.80;101167.59;6125298;22;97238;-83
2023/04/10 04:00:30;;;;;;;33.47;24.27;;;;;;;8.29;69.18;101179.66;6149995;22;101084;-83
2023/04/10 04:03:07;;;;;;;36.40;24.85;;;;;;;8.27;68.74;101171.84;6152588;22;101296;-84
2023/04/10 04:06:02;;;;;;;30.90;23.77;;;;;;;8.31;68.51;101173.53;6175186;22;97172;-83
2023/04/10 04:08:37;;;;;;;36.13;25.27;;;;;;;8.32;68.59;101171.78;6176007;22;96651;-84
2023/04/10 04:11:06;;;;;;;32.97;23.38;;;;;;;8.34;68.58;101177.88;6174050;22;97725;-84
2023/04/10 04:13:54;;;;;;;33.65;23.40;;;;;;;8.32;68.47;101180.53;6168039;22;97657;-83
2023/04/10 04:16:38;;;;;;;32.22;24.17;;;;;;;8.34;68.34;101183.13;6175734;22;96705;-84
2023/04/10 04:19:22;;;;;;;31.70;23.17;;;;;;;8.22;69.00;101186.72;6176403;22;96725;-83
2023/04/10 04:22:23;;;;;;;33.35;22.85;;;;;;;8.13;68.79;101181.59;6149240;22;98780;-84
2023/04/10 04:25:10;;;;;;;41.00;24.70;;;;;;;8.26;68.65;101193.69;6132348;22;101720;-84
2023/04/10 04:27:50;;;;;;;32.50;22.25;;;;;;;8.26;68.67;101184.94;6154137;22;96821;-83
2023/04/10 04:30:31;;;;;;;26.25;21.08;;;;;;;8.27;69.06;101181.47;6175621;22;96676;-83
2023/04/10 04:33:11;;;;;;;27.98;22.20;;;;;;;8.38;68.27;101192.69;6175485;22;97920;-83
2023/04/10 04:35:59;;;;;;;28.23;21.70;;;;;;;8.32;68.70;101188.38;6133212;22;101470;-83
2023/04/10 04:38:43;;;;;;;36.92;23.08;;;;;;;8.34;69.42;101190.97;6176184;22;97184;-83
2023/04/10 04:41:23;;;;;;;30.00;22.70;;;;;;;8.34;68.79;101189.22;6130197;22;96667;-83
2023/04/10 04:44:04;;;;;;;28.00;21.73;;;;;;;8.38;69.18;101195.28;6130660;22;100639;-83
2023/04/10 04:46:49;;;;;;;32.65;24.00;;;;;;;8.39;69.31;101191.81;6137929;22;97613;-84
2023/04/10 04:49:27;;;;;;;31.60;23.58;;;;;;;8.44;69.54;101190.03;6152523;22;96649;-83
2023/04/10 04:52:13;;;;;;;29.52;22.75;;;;;;;8.49;69.45;101187.34;6129536;22;96854;-84
2023/04/10 04:54:45;;;;;;;32.10;23.90;;;;;;;8.49;69.70;101198.66;6129203;22;101734;-83
2023/04/10 04:57:29;;;;;;;34.38;23.70;;;;;;;8.47;70.14;101200.44;6154606;22;101266;-82
2023/04/10 05:00:16;;;;;;;49.97;23.88;;;;;;;8.51;70.34;101211.75;6134583;22;96669;-84
2023/04/10 05:02:53;;;;;;;50.40;27.13;;;;;;;8.54;70.43;101209.94;6154358;22;97396;-84
2023/04/10 05:05:48;;;;;;;44.58;25.85;;;;;;;8.53;70.55;101200.38;6155983;22;97430;-83
2023/04/10 05:08:46;;;;;;;46.28;27.50;;;;;;;8.56;70.57;101209.94;6124512;22;97776;-83
2023/04/10 05:11:44;;;;;;;40.47;26.40;;;;;;;8.56;70.54;101205.56;6158424;22;97359;-83
2023/04/10 05:14:17;;;;;;;44.67;26.75;;;;;;;8.61;70.55;101205.53;6152635;22;97260;-84
2023/04/10 05:16:57;;;;;;;50.50;30.92;;;;;;;8.55;71.23;101202.97;6153027;22;102017;-81
2023/04/10 05:19:42;;;;;;;52.80;31.20;;;;;;;8.65;71.50;101230.78;6176881;22;96979;-83
2023/04/10 05:22:14;;;;;;;49.70;29.70;;;;;;;8.64;71.34;101236.00;6176166;22;97228;-81
2023/04/10 05:24:58;;;;;;;50.50;28.55;;;;;;;8.64;71.86;101234.28;6176878;22;96944;-81
2023/04/10 05:27:33;;;;;;;47.38;28.85;;;;;;;8.64;71.47;101236.00;6129425;22;101097;-83
2023/04/10 05:30:34;;;;;;;51.33;29.70;;;;;;;8.58;71.65;101242.19;6096399;23;97721;-82
2023/04/10 05:33:02;;;;;;;50.80;29.85;;;;;;;8.64;71.80;101251.72;6158028;22;96830;-83
2023/04/10 05:35:34;;;;;;;53.63;31.63;;;;;;;8.59;72.02;101257.88;6175879;22;97594;-84
2023/04/10 05:38:08;;;;;;;48.83;30.63;;;;;;;8.56;72.59;101255.28;6127929;22;101249;-83
2023/04/10 05:40:53;;;;;;;55.60;31.95;;;;;;;8.61;72.79;101257.88;6131441;22;101272;-83
2023/04/10 05:43:36;;;;;;;57.55;31.83;;;;;;;8.52;73.39;101237.00;6131414;22;97224;-83
2023/04/10 05:46:20;;;;;;;62.95;34.53;;;;;;;8.64;72.83;101270.94;6174452;22;97034;-82
2023/04/10 05:49:24;;;;;;;56.08;34.45;;;;;;;8.63;73.34;101277.03;6128614;22;99784;-84
2023/04/10 05:52:12;;;;;;;53.15;33.80;;;;;;;8.59;73.47;101267.50;6111418;22;97529;-83
2023/04/10 05:55:07;;;;;;;53.65;33.78;;;;;;;8.63;73.94;101271.78;6074513;22;96853;-84
2023/04/10 05:57:52;;;;;;;49.38;31.77;;;;;;;8.69;74.28;101273.47;6175286;22;96658;-84
2023/04/10 06:00:51;;;;;;;47.05;31.85;;;;;;;8.71;74.48;101264.72;6090823;22;96792;-83
2023/04/10 06:03:41;;;;;;;46.10;31.63;;;;;;;8.79;74.14;101259.41;6135359;22;101002;-83
2023/04/10 06:06:07;;;;;;;51.00;32.35;;;;;;;8.80;73.92;101248.06;6123560;22;97091;-83
2023/04/10 06:08:35;;;;;;;49.10;33.35;;;;;;;8.69;74.60;101218.50;6149347;22;97170;-84
2023/04/10 06:11:01;;;;;;;49.63;31.73;;;;;;;8.86;74.44;101252.34;6148688;22;101813;-81
2023/04/10 06:13:28;;;;;;;64.10;37.03;;;;;;;8.84;74.19;101242.78;6125413;22;101506;-83
2023/04/10 06:15:57;;;;;;;56.65;35.88;;;;;;;8.92;74.38;101255.75;6125226;22;96680;-83
2023/04/10 06:18:23;;;;;;;56.55;37.08;;;;;;;8.99;74.16;101259.19;6124369;22;97436;-83
2023/04/10 06:20:48;;;;;;;56.47;37.72;;;;;;;9.04;74.18;101258.19;6148921;22;101052;-83
2023/04/10 06:23:14;;;;;;;60.92;38.13;;;;;;;9.09;74.24;101246.81;6148722;22;100267;-83
2023/04/10 06:25:40;;;;;;;62.08;39.92;;;;;;;9.10;74.13;101246.78;6149349;22;96984;-82
2023/04/10 06:28:06;;;;;;;57.88;38.97;;;;;;;9.06;74.43;101239.88;6174656;22;96849;-83
2023/04/10 06:30:33;;;;;;;57.00;38.25;;;;;;;9.14;74.59;101248.50;6124618;22;101633;-81
2023/04/10 06:33:00;;;;;;;55.42;37.47;;;;;;;9.21;74.04;101236.16;6124960;22;101795;-82
2023/04/10 06:35:26;;;;;;;57.38;37.92;;;;;;;9.23;74.47;101237.88;6147946;22;97059;-83
2023/04/10 06:37:52;;;;;;;59.70;37.15;;;;;;;9.23;74.23;101245.75;6124254;22;97124;-83
2023/04/10 06:40:18;;;;;;;56.65;37.83;;;;;;;9.22;74.63;101235.28;6148229;22;98834;-83
2023/04/10 06:42:43;;;;;;;59.17;37.50;;;;;;;9.28;75.45;101254.41;6149375;22;101096;-83
2023/04/10 06:45:20;;;;;;;54.63;36.70;;;;;;;9.26;75.14;101248.31;6150803;22;96835;-83
2023/04/10 06:47:45;;;;;;;52.10;36.42;;;;;;;9.35;75.26;101259.56;6124535;22;97181;-84
2023/04/10 06:50:11;;;;;;;53.10;33.78;;;;;;;9.34;75.30;101257.81;6148556;22;97917;-83
2023/04/10 06:52:37;;;;;;;54.42;36.05;;;;;;;9.34;74.57;101268.28;6124707;22;101010;-83
2023/04/10 06:55:03;;;;;;;56.38;36.58;;;;;;;9.40;74.45;101266.47;6124775;22;96672;-81
2023/04/10 06:57:28;;;;;;;52.42;34.72;;;;;;;9.38;74.53;101277.88;6148836;22;96721;-84
2023/04/10 06:59:54;;;;;;;55.72;36.67;;;;;;;9.40;74.74;101283.97;6174324;22;97547;-84
2023/04/10 07:02:20;;;;;;;56.10;36.58;;;;;;;9.41;74.58;101275.19;6148450;22;101132;-84
2023/04/10 07:04:45;;;;;;;62.72;39.22;;;;;;;9.32;74.48;101260.47;6149537;22;97282;-83
2023/04/10 07:07:12;;;;;;;51.08;35.55;;;;;;;9.42;74.74;101279.53;6148203;22;97305;-83
2023/04/10 07:09:38;;;;;;;52.10;35.38;;;;;;;9.48;74.95;101287.31;6124661;22;101356;-84
2023/04/10 07:12:04;;;;;;;47.80;33.30;;;;;;;9.40;74.69;101279.56;6148492;22;100804;-81
2023/04/10 07:14:31;;;;;;;50.35;33.33;;;;;;;9.40;75.23;101281.34;6124461;22;96916;-83
2023/04/10 07:16:57;;;;;;;48.45;34.15;;;;;;;9.50;75.04;101272.44;6149658;22;96688;-82
2023/04/10 07:19:22;;;;;;;46.55;32.45;;;;;;;9.49;74.82;101276.81;6148643;22;101258;-84
2023/04/10 07:21:49;;;;;;;46.38;33.53;;;;;;;9.55;74.79;101283.72;6123995;22;101525;-85
2023/04/10 07:24:16;;;;;;;50.35;34.70;;;;;;;9.54;74.35;101284.63;6148342;22;97204;-83
2023/04/10 07:26:43;;;;;;;45.97;32.85;;;;;;;9.49;74.59;101278.59;6173947;22;97055;-81
2023/04/10 07:29:08;;;;;;;47.20;33.70;;;;;;;9.47;74.92;101275.09;6124807;22;101653;-80
2023/04/10 07:31:34;;;;;;;43.15;31.10;;;;;;;9.50;75.37;101283.78;6125437;22;101212;-79
2023/04/10 07:34:00;;;;;;;41.45;29.95;;;;;;;9.52;74.78;101284.63;6150357;22;96806;-79
2023/04/10 07:36:26;;;;;;;50.03;34.17;;;;;;;9.48;74.83;101263.72;6149347;22;97278;-80
2023/04/10 07:38:51;;;;;;;50.13;33.15;;;;;;;9.54;74.90;101276.78;6122363;22;101310;-80
2023/04/10 07:41:17;;;;;;;48.67;35.13;;;;;;;9.64;74.73;101273.09;6149453;22;97189;-80
2023/04/10 07:43:42;;;;;;;52.83;34.90;;;;;;;9.70;74.53;101269.53;6149762;22;96852;-81
2023/04/10 07:46:08;;;;;;;40.58;30.33;;;;;;;9.82;74.36;101276.34;6149635;22;97233;-84
2023/04/10 07:48:34;;;;;;;48.42;34.00;;;;;;;9.93;73.74;101275.28;6149671;22;97454;-82
2023/04/10 07:50:59;;;;;;;46.60;33.92;;;;;;;10.04;74.11;101264.63;6120722;22;101563;-79
2023/04/10 07:53:26;;;;;;;44.88;33.90;;;;;;;10.14;73.79;101266.19;6147469;22;96714;-79
2023/04/10 07:55:52;;;;;;;48.22;35.53;;;;;;;10.21;73.23;101277.44;6122359;22;97281;-82
2023/04/10 07:58:17;;;;;;;51.92;37.45;;;;;;;10.14;73.19;101268.78;6146732;22;101132;-79
2023/04/10 08:00:43;;;;;;;52.83;37.08;;;;;;;10.19;73.46;101272.22;6121001;22;101415;-81
2023/04/10 08:03:10;;;;;;;50.40;36.40;;;;;;;10.12;73.19;101253.97;6120895;22;97175;-85
2023/04/10 08:05:36;;;;;;;51.30;37.25;;;;;;;10.17;73.11;101267.88;6123403;22;97100;-86
2023/04/10 08:08:01;;;;;;;56.55;38.42;;;;;;;10.28;73.74;101275.59;6123450;22;101249;-85
2023/04/10 08:10:27;;;;;;;53.15;36.83;;;;;;;10.41;73.33;101272.75;6121428;22;101623;-81
2023/04/10 08:12:52;;;;;;;57.75;38.72;;;;;;;10.62;73.00;101260.97;6146489;22;96696;-82
2023/04/10 08:15:17;;;;;;;52.50;38.03;;;;;;;10.80;72.75;101253.63;6171641;22;96962;-84
2023/04/10 08:17:43;;;;;;;51.22;38.38;;;;;;;10.93;71.92;101252.47;6146989;22;100905;-84
2023/04/10 08:20:10;;;;;;;49.92;36.45;;;;;;;11.03;71.88;101255.78;6120836;22;100759;-86
2023/04/10 08:22:35;;;;;;;44.58;35.42;;;;;;;11.35;71.86;101257.72;6147242;22;97400;-84
2023/04/10 08:25:02;;;;;;;47.95;35.63;;;;;;;11.35;71.73;101256.84;6122411;22;96839;-85
2023/04/10 08:27:27;;;;;;;53.58;38.25;;;;;;;11.46;70.90;101250.44;6146548;22;101652;-84
2023/04/10 08:29:53;;;;;;;48.35;35.75;;;;;;;11.27;70.74;101220.22;6147540;22;97265;-81
2023/04/10 08:32:18;;;;;;;50.92;36.40;;;;;;;11.38;70.97;101255.00;6172581;22;96757;-82
2023/04/10 08:34:44;;;;;;;46.33;34.13;;;;;;;11.35;71.13;101255.09;6122592;22;97896;-82
2023/04/10 08:37:11;;;;;;;48.30;35.78;;;;;;;11.24;71.39;101250.06;6171716;22;101248;-84
2023/04/10 08:39:37;;;;;;;52.53;36.75;;;;;;;11.20;71.19;101263.28;6147042;22;97230;-81
2023/04/10 08:42:02;;;;;;;48.33;35.00;;;;;;;11.19;71.63;101261.56;6178657;22;97402;-84
2023/04/10 08:44:28;;;;;;;45.92;33.45;;;;;;;11.33;70.38;101256.88;6127021;22;97293;-86
2023/04/10 08:46:58;;;;;;;44.72;33.75;;;;;;;11.28;70.25;101254.34;6151930;22;101608;-88
2023/04/10 08:49:34;;;;;;;50.55;34.17;;;;;;;11.22;70.44;101257.09;6124291;22;100160;-87
2023/04/10 08:52:01;;;;;;;47.75;33.88;;;;;;;11.23;70.79;101250.97;6151419;22;97150;-87
2023/04/10 08:54:33;;;;;;;45.63;33.88;;;;;;;11.24;71.03;101250.06;6126494;22;97247;-87
2023/04/10 08:57:00;;;;;;;46.35;32.95;;;;;;;11.37;70.43;101252.41;6151771;22;101224;-87
2023/04/10 08:59:30;;;;;;;44.80;32.38;;;;;;;11.76;70.04;101243.59;6151219;22;100534;-88
2023/04/10 09:01:58;;;;;;;47.80;34.05;;;;;;;12.08;68.30;101231.44;6151031;22;97042;-86
2023/04/10 09:04:25;;;;;;;44.25;33.30;;;;;;;12.27;67.73;101249.38;6126334;22;97219;-88
2023/04/10 09:06:54;;;;;;;42.72;31.45;;;;;;;12.19;67.67;101245.19;6152123;22;98119;-88
2023/04/10 09:09:20;;;;;;;43.80;31.42;;;;;;;12.16;67.91;101242.63;6150598;22;98353;-84
2023/04/10 09:11:51;;;;;;;42.70;31.38;;;;;;;12.26;67.58;101240.59;6151465;22;97264;-88
2023/04/10 09:14:24;;;;;;;42.00;31.73;;;;;;;12.33;67.67;101239.53;6176166;22;97164;-87
2023/04/10 09:16:50;;;;;;;44.28;31.23;;;;;;;12.32;67.73;101247.47;6126422;22;101106;-88
2023/04/10 09:19:29;;;;;;;40.80;30.42;;;;;;;12.42;67.13;101222.63;6151693;22;101254;-86
2023/04/10 09:21:55;;;;;;;40.42;29.90;;;;;;;12.53;67.46;101239.00;6151848;22;96685;-87
2023/04/10 09:24:22;;;;;;;43.25;29.83;;;;;;;12.63;66.38;101226.44;6150369;22;97462;-85
2023/04/10 09:26:47;;;;;;;40.35;30.25;;;;;;;12.54;66.66;101230.22;6153749;22;101598;-88
2023/04/10 09:29:14;;;;;;;45.97;32.55;;;;;;;12.63;66.52;101231.72;6154008;22;101354;-94
2023/04/10 09:31:41;;;;;;;39.65;28.33;;;;;;;12.65;66.91;101214.06;6131040;22;97833;-87
2023/04/10 09:34:15;;;;;;;41.33;29.50;;;;;;;12.72;66.42;101223.56;6130176;22;96918;-95
2023/04/10 09:36:42;;;;;;;41.55;29.77;;;;;;;12.89;66.33;101223.94;6131018;22;102021;-91
2023/04/10 09:39:10;;;;;;;34.40;27.67;;;;;;;13.16;65.77;101208.19;6130774;22;100091;-90
2023/04/10 09:41:53;;;;;;;37.67;27.70;;;;;;;13.56;64.81;101202.56;6131209;22;96748;-88
2023/04/10 09:44:30;;;;;;;36.22;27.65;;;;;;;14.36;61.71;101181.34;6128716;22;96765;-88
2023/04/10 09:46:56;;;;;;;36.25;27.33;;;;;;;15.06;60.00;101171.72;6154295;22;101188;-89
2023/04/10 09:49:21;;;;;;;42.15;30.02;;;;;;;15.86;57.78;101187.91;6128380;22;100594;-88
2023/04/10 09:51:48;;;;;;;36.17;27.48;;;;;;;16.34;56.81;101184.03;6153868;22;96712;-89
2023/04/10 09:54:14;;;;;;;35.55;27.42;;;;;;;16.84;57.10;101172.97;6128960;22;97289;-88
2023/04/10 09:56:41;;;;;;;34.03;25.63;;;;;;;17.11;54.69;101162.00;6152974;22;101797;-91
2023/04/10 09:59:07;;;;;;;32.35;25.10;;;;;;;17.56;53.76;101161.50;6127635;22;101579;-89
2023/04/10 10:01:36;;;;;;;30.65;24.92;;;;;;;17.62;53.81;101163.84;6178834;22;97051;-89
2023/04/10 10:04:03;;;;;;;29.27;23.80;;;;;;;17.62;53.57;101149.72;6129648;22;97285;-90
2023/04/10 10:06:32;;;;;;;32.08;24.63;;;;;;;17.69;53.59;101153.81;6129146;22;101085;-88
2023/04/10 10:09:03;;;;;;;35.17;25.50;;;;;;;17.68;51.30;101135.28;6155587;22;101443;-89
2023/04/10 10:11:31;;;;;;;33.40;23.67;;;;;;;17.51;51.85;101138.78;6131129;22;97202;-89
2023/04/10 10:13:59;;;;;;;33.17;24.75;;;;;;;17.35;51.56;101155.47;6131121;22;97335;-89
2023/04/10 10:16:27;;;;;;;31.05;24.90;;;;;;;16.95;52.02;101149.44;6129381;22;101575;-89
2023/04/10 10:19:03;;;;;;;31.95;25.67;;;;;;;16.48;52.30;101151.63;6130441;22;101064;-91
2023/04/10 10:21:29;;;;;;;30.67;25.30;;;;;;;16.01;54.84;101141.34;6127540;22;97099;-88
2023/04/10 10:23:57;;;;;;;32.55;25.90;;;;;;;16.21;53.86;101119.28;6129497;22;97332;-91
2023/04/10 10:26:23;;;;;;;31.67;25.58;;;;;;;16.22;53.05;101134.25;6152955;22;99561;-92
2023/04/10 10:28:51;;;;;;;29.92;25.23;;;;;;;16.02;53.38;101114.78;6154454;22;101286;-90
2023/04/10 10:31:18;;;;;;;38.20;26.52;;;;;;;16.11;53.49;101136.50;6154357;22;96685;-92
2023/04/10 10:33:45;;;;;;;35.60;25.80;;;;;;;15.82;53.86;101128.94;6154937;22;97297;-91
2023/04/10 10:36:12;;;;;;;32.85;26.80;;;;;;;15.79;53.95;101130.81;6154760;22;101149;-90
2023/04/10 10:38:48;;;;;;;32.50;26.20;;;;;;;15.43;54.61;101075.00;6183279;22;101297;-96
2023/04/10 10:41:27;;;;;;;33.97;27.17;;;;;;;15.64;54.70;101124.38;6131842;22;96679;-91
2023/04/10 10:44:00;;;;;;;35.15;28.02;;;;;;;15.39;54.40;101108.69;6156151;22;96896;-90
2023/04/10 10:46:35;;;;;;;35.33;26.92;;;;;;;15.23;55.36;101126.09;6132168;22;100274;-91
2023/04/10 10:49:01;;;;;;;36.30;26.45;;;;;;;15.22;56.00;101119.94;6157873;22;101098;-90
2023/04/10 10:51:49;;;;;;;35.80;27.45;;;;;;;15.04;56.11;101091.59;6157797;22;97034;-91
2023/04/10 10:54:28;;;;;;;34.10;27.45;;;;;;;15.17;56.65;101106.91;6132534;22;96972;-91
2023/04/10 10:56:54;;;;;;;31.77;25.52;;;;;;;15.20;57.24;101105.91;6157930;22;100427;-91
2023/04/10 10:59:45;;;;;;;31.85;26.50;;;;;;;14.96;56.82;101104.28;6133003;22;99985;-93
2023/04/10 11:02:15;;;;;;;35.03;26.58;;;;;;;15.01;57.33;101102.28;6181281;22;96927;-92
2023/04/10 11:04:44;;;;;;;34.92;25.85;;;;;;;15.02;57.03;101096.09;6157201;22;96862;-92
2023/04/10 11:07:10;;;;;;;36.70;26.88;;;;;;;14.84;56.86;101090.63;6130677;22;99774;-91
2023/04/10 11:09:53;;;;;;;34.80;25.23;;;;;;;14.85;57.95;101088.84;6156304;22;100145;-91
2023/04/10 11:12:25;;;;;;;33.03;27.13;;;;;;;14.85;57.87;101088.84;6135202;22;97178;-90
2023/04/10 11:14:58;;;;;;;33.65;27.30;;;;;;;14.79;57.15;101071.44;6133705;22;97650;-91
2023/04/10 11:17:48;;;;;;;35.17;26.63;;;;;;;14.88;56.02;101086.91;6157225;22;97421;-90
2023/04/10 11:20:13;;;;;;;30.05;24.55;;;;;;;14.80;56.15;101083.72;6163642;22;96994;-91
2023/04/10 11:23:11;;;;;;;28.15;24.23;;;;;;;14.70;57.37;101085.00;6167537;22;96664;-90
2023/04/10 11:25:50;;;;;;;30.17;24.52;;;;;;;14.75;57.08;101083.06;6111812;22;97427;-91
2023/04/10 11:28:30;;;;;;;28.60;22.60;;;;;;;14.67;56.99;101061.34;6131632;22;101383;-92
2023/04/10 11:31:13;;;;;;;30.03;23.07;;;;;;;14.74;57.42;101073.38;6156756;22;101311;-92